createdAt,value
2023-01-28T00:00:11.693Z,5.53
2023-01-28T00:02:40.374Z,9.23
2023-01-28T00:05:09.454Z,4.10
2023-01-28T00:07:37.994Z,5.57
2023-01-28T00:10:07.429Z,4.40
2023-01-28T00:12:36.217Z,5.75
2023-01-28T00:15:05.768Z,4.50
2023-01-28T00:17:36.802Z,5.50
2023-01-28T00:20:06.115Z,5.55
2023-01-28T00:22:34.837Z,7.28
2023-01-28T00:25:03.326Z,5.35
2023-01-28T00:27:32.097Z,4.10
2023-01-28T00:30:00.625Z,3.75
2023-01-28T00:32:29.151Z,5.35
2023-01-28T00:34:58.899Z,7.63
2023-01-28T00:37:27.447Z,5.38
2023-01-28T00:39:56.396Z,4.93
2023-01-28T00:42:24.886Z,4.43
2023-01-28T00:44:53.319Z,5.63
2023-01-28T00:47:22.493Z,4.05
2023-01-28T00:49:50.903Z,5.10
2023-01-28T00:52:20.898Z,7.78
2023-01-28T00:54:49.819Z,4.32
2023-01-28T00:57:18.230Z,5.32
2023-01-28T00:59:46.747Z,6.35
2023-01-28T01:02:15.334Z,3.90
2023-01-28T01:04:54.742Z,6.20
2023-01-28T01:07:32.242Z,7.88
2023-01-28T01:10:01.149Z,4.75
2023-01-28T01:12:30.009Z,4.05
2023-01-28T01:14:58.874Z,6.75
2023-01-28T01:17:27.367Z,4.13
2023-01-28T01:19:55.776Z,6.85
2023-01-28T01:22:25.873Z,8.98
2023-01-28T01:24:54.366Z,4.15
2023-01-28T01:27:23.187Z,4.35
2023-01-28T01:29:51.659Z,4.93
2023-01-28T01:32:20.366Z,5.55
2023-01-28T01:34:49.402Z,6.57
2023-01-28T01:37:17.947Z,4.65
2023-01-28T01:39:47.698Z,4.80
2023-01-28T01:42:16.645Z,9.82
2023-01-28T01:44:57.779Z,5.95
2023-01-28T01:47:32.936Z,4.18
2023-01-28T01:50:05.666Z,4.60
2023-01-28T01:52:36.948Z,7.78
2023-01-28T01:55:13.552Z,5.25
2023-01-28T01:57:43.868Z,6.97
2023-01-28T02:00:12.944Z,7.00
2023-01-28T02:02:45.308Z,6.03
2023-01-28T02:05:16.289Z,5.18
2023-01-28T02:07:47.085Z,11.73
2023-01-28T02:10:18.801Z,4.35
2023-01-28T02:12:54.859Z,7.30
2023-01-28T02:15:32.529Z,6.95
2023-01-28T02:18:01.502Z,7.53
2023-01-28T02:20:47.319Z,6.15
2023-01-28T02:23:35.503Z,6.00
2023-01-28T02:26:25.195Z,7.00
2023-01-28T02:29:00.030Z,7.55
2023-01-28T02:31:32.825Z,7.18
2023-01-28T02:34:12.617Z,7.20
2023-01-28T02:36:46.578Z,7.55
2023-01-28T02:39:20.010Z,8.70
2023-01-28T02:41:54.544Z,7.28
2023-01-28T02:44:24.620Z,6.85
2023-01-28T02:47:11.724Z,9.55
2023-01-28T02:49:44.189Z,7.05
2023-01-28T02:52:52.177Z,8.13
2023-01-28T02:55:31.675Z,6.88
2023-01-28T02:58:11.511Z,10.90
2023-01-28T03:00:48.351Z,7.70
2023-01-28T03:03:21.123Z,7.93
2023-01-28T03:06:05.167Z,8.48
2023-01-28T03:08:54.654Z,4.88
2023-01-28T03:11:41.366Z,6.65
2023-01-28T03:14:27.766Z,5.82
2023-01-28T03:17:18.213Z,8.82
2023-01-28T03:20:05.644Z,6.35
2023-01-28T03:22:56.016Z,10.05
2023-01-28T03:25:45.995Z,6.50
2023-01-28T03:28:37.078Z,6.28
2023-01-28T03:31:27.815Z,12.23
2023-01-28T03:34:17.093Z,11.18
2023-01-28T03:36:50.726Z,10.55
2023-01-28T03:39:23.020Z,9.55
2023-01-28T03:42:00.220Z,7.50
2023-01-28T03:44:49.051Z,8.73
2023-01-28T03:47:18.093Z,9.82
2023-01-28T03:49:50.156Z,9.57
2023-01-28T03:52:20.669Z,11.18
2023-01-28T03:54:50.060Z,8.40
2023-01-28T03:57:20.330Z,9.30
2023-01-28T03:59:49.789Z,9.85
2023-01-28T04:02:18.686Z,8.82
2023-01-28T04:04:50.079Z,8.98
2023-01-28T04:07:18.945Z,7.60
2023-01-28T04:09:47.317Z,9.88
2023-01-28T04:12:15.771Z,10.27
2023-01-28T04:14:44.282Z,8.10
2023-01-28T04:17:12.673Z,9.13
2023-01-28T04:19:41.949Z,9.00
2023-01-28T04:22:12.740Z,8.50
2023-01-28T04:24:41.268Z,13.60
2023-01-28T04:27:09.777Z,8.30
2023-01-28T04:29:38.201Z,8.43
2023-01-28T04:32:06.647Z,8.98
2023-01-28T04:34:35.078Z,9.07
2023-01-28T04:37:03.524Z,11.52
2023-01-28T04:39:33.386Z,9.30
2023-01-28T04:42:01.834Z,13.50
2023-01-28T04:44:30.268Z,8.45
2023-01-28T04:46:58.799Z,10.00
2023-01-28T04:49:27.233Z,10.50
2023-01-28T04:51:55.886Z,13.35
2023-01-28T04:54:24.469Z,10.07
2023-01-28T04:56:54.772Z,12.05
2023-01-28T04:59:24.293Z,13.57
2023-01-28T05:01:52.793Z,11.55
2023-01-28T05:04:21.363Z,10.63
2023-01-28T05:06:49.752Z,9.13
2023-01-28T05:09:18.467Z,11.02
2023-01-28T05:11:46.941Z,9.50
2023-01-28T05:14:16.680Z,9.48
2023-01-28T05:16:45.346Z,12.63
2023-01-28T05:19:13.928Z,8.93
2023-01-28T05:21:42.482Z,12.55
2023-01-28T05:24:11.489Z,11.75
2023-01-28T05:26:40.150Z,11.00
2023-01-28T05:29:08.788Z,13.00
2023-01-28T05:31:38.639Z,13.02
2023-01-28T05:34:07.040Z,11.88
2023-01-28T05:36:35.433Z,13.27
2023-01-28T05:39:03.853Z,13.57
2023-01-28T05:41:32.640Z,13.10
2023-01-28T05:44:01.308Z,13.93
2023-01-28T05:46:29.705Z,14.77
2023-01-28T05:48:59.704Z,17.40
2023-01-28T05:51:28.231Z,14.40
2023-01-28T05:53:56.946Z,13.00
2023-01-28T05:56:25.578Z,15.40
2023-01-28T05:58:54.049Z,13.13
2023-01-28T06:01:22.685Z,12.48
2023-01-28T06:03:51.147Z,12.93
2023-01-28T06:06:24.596Z,13.23
2023-01-28T06:08:55.324Z,14.18
2023-01-28T06:11:23.923Z,13.70
2023-01-28T06:13:52.852Z,13.52
2023-01-28T06:16:21.454Z,13.68
2023-01-28T06:18:49.849Z,16.50
2023-01-28T06:21:18.404Z,14.35
2023-01-28T06:23:48.212Z,15.68
2023-01-28T06:26:16.709Z,13.13
2023-01-28T06:28:45.256Z,14.00
2023-01-28T06:31:13.955Z,13.23
2023-01-28T06:33:42.808Z,14.35
2023-01-28T06:36:11.737Z,13.32
2023-01-28T06:38:44.323Z,12.93
2023-01-28T06:41:15.127Z,15.23
2023-01-28T06:43:44.337Z,12.93
2023-01-28T06:46:13.279Z,13.77
2023-01-28T06:48:41.868Z,18.08
2023-01-28T06:51:10.389Z,13.48
2023-01-28T06:53:39.037Z,13.60
2023-01-28T06:56:08.547Z,11.98
2023-01-28T06:58:38.761Z,14.45
2023-01-28T07:01:07.830Z,14.10
2023-01-28T07:03:37.557Z,12.75
2023-01-28T07:06:06.754Z,20.35
2023-01-28T07:08:35.759Z,11.05
2023-01-28T07:11:04.677Z,12.75
2023-01-28T07:13:33.882Z,10.57
2023-01-28T07:16:04.056Z,11.07
2023-01-28T07:18:32.470Z,12.80
2023-01-28T07:21:01.159Z,12.85
2023-01-28T07:23:29.697Z,12.35
2023-01-28T07:26:03.088Z,13.68
2023-01-28T07:28:34.815Z,12.02
2023-01-28T07:31:04.994Z,11.73
2023-01-28T07:33:34.032Z,10.15
2023-01-28T07:36:07.653Z,13.43
2023-01-28T07:38:36.424Z,13.65
2023-01-28T07:41:04.983Z,12.38
2023-01-28T07:43:33.436Z,13.70
2023-01-28T07:46:02.797Z,12.48
2023-01-28T07:48:32.865Z,9.57
2023-01-28T07:51:01.767Z,11.90
2023-01-28T07:53:30.358Z,8.98
2023-01-28T07:56:14.891Z,11.43
2023-01-28T07:58:43.672Z,9.23
2023-01-28T08:01:12.174Z,9.63
2023-01-28T08:03:41.930Z,8.38
2023-01-28T08:06:11.562Z,9.18
2023-01-28T08:08:40.148Z,10.27
2023-01-28T08:11:10.713Z,11.52
2023-01-28T08:13:39.183Z,14.25
2023-01-28T08:16:08.408Z,16.23
2023-01-28T08:18:36.900Z,10.68
2023-01-28T08:21:06.816Z,15.27
2023-01-28T08:23:35.519Z,14.57
2023-01-28T08:26:04.012Z,12.05
2023-01-28T08:28:32.577Z,11.20
2023-01-28T08:31:02.031Z,11.48
2023-01-28T08:33:30.900Z,10.85
2023-01-28T08:35:59.645Z,14.98
2023-01-28T08:38:29.490Z,13.05
2023-01-28T08:40:58.954Z,15.48
2023-01-28T08:43:27.412Z,14.27
2023-01-28T08:45:55.926Z,16.48
2023-01-28T08:48:24.470Z,13.18
2023-01-28T08:50:52.942Z,14.65
2023-01-28T08:53:25.122Z,15.35
2023-01-28T08:55:55.726Z,13.88
2023-01-28T08:58:24.352Z,12.38
2023-01-28T09:00:52.977Z,15.65
2023-01-28T09:03:21.490Z,12.65
2023-01-28T09:05:50.565Z,13.10
2023-01-28T09:08:19.144Z,10.02
2023-01-28T09:10:47.600Z,14.60
2023-01-28T09:13:17.867Z,12.82
2023-01-28T09:15:46.813Z,16.08
2023-01-28T09:18:15.582Z,12.68
2023-01-28T09:20:44.608Z,11.48
2023-01-28T09:23:14.954Z,11.80
2023-01-28T09:25:43.529Z,16.75
2023-01-28T09:28:12.102Z,10.25
2023-01-28T09:30:43.045Z,8.38
2023-01-28T09:33:11.549Z,12.27
2023-01-28T09:35:39.961Z,9.85
2023-01-28T09:38:08.432Z,11.20
2023-01-28T09:40:39.073Z,10.38
2023-01-28T09:43:27.563Z,10.88
2023-01-28T09:45:59.914Z,10.65
2023-01-28T09:48:34.046Z,16.73
2023-01-28T09:51:04.060Z,11.02
2023-01-28T09:53:36.415Z,10.73
2023-01-28T09:56:08.413Z,9.23
2023-01-28T09:58:37.099Z,9.13
2023-01-28T10:01:23.832Z,9.80
2023-01-28T10:03:56.548Z,10.77
2023-01-28T10:06:31.521Z,8.82
2023-01-28T10:09:15.422Z,8.75
2023-01-28T10:11:55.736Z,10.65
2023-01-28T10:14:37.638Z,12.57
2023-01-28T10:17:13.612Z,10.93
2023-01-28T10:19:48.155Z,12.60
2023-01-28T10:22:22.605Z,10.23
2023-01-28T10:24:57.575Z,12.38
2023-01-28T10:27:31.150Z,11.05
2023-01-28T10:30:01.655Z,11.60
2023-01-28T10:32:34.258Z,13.30
2023-01-28T10:35:03.701Z,10.52
2023-01-28T10:37:36.478Z,9.35
2023-01-28T10:40:06.472Z,9.68
2023-01-28T10:42:40.477Z,9.82
2023-01-28T10:45:18.951Z,12.23
2023-01-28T10:47:54.208Z,13.63
2023-01-28T10:50:25.662Z,11.45
2023-01-28T10:52:59.053Z,18.70
2023-01-28T10:55:30.981Z,11.88
2023-01-28T10:58:00.404Z,15.20
2023-01-28T11:00:32.750Z,12.73
2023-01-28T11:03:03.301Z,14.88
2023-01-28T11:05:32.397Z,15.65
2023-01-28T11:08:05.397Z,13.65
2023-01-28T11:10:37.140Z,16.35
2023-01-28T11:13:08.069Z,19.67
2023-01-28T11:15:36.795Z,16.50
2023-01-28T11:18:16.787Z,18.13
2023-01-28T11:20:52.701Z,18.63
2023-01-28T11:23:25.176Z,15.88
2023-01-28T11:26:16.875Z,18.10
2023-01-28T11:28:46.783Z,19.95
2023-01-28T11:31:17.592Z,18.67
2023-01-28T11:33:51.329Z,18.02
2023-01-28T11:36:22.165Z,22.38
2023-01-28T11:38:53.774Z,21.10
2023-01-28T11:41:29.559Z,18.65
2023-01-28T11:44:00.232Z,20.45
2023-01-28T11:46:49.097Z,17.25
2023-01-28T11:49:30.492Z,17.27
2023-01-28T11:52:09.171Z,16.48
2023-01-28T11:54:48.632Z,18.70
2023-01-28T11:57:24.782Z,21.02
2023-01-28T12:00:27.257Z,19.48
2023-01-28T12:03:06.292Z,19.45
2023-01-28T12:05:50.594Z,20.30
2023-01-28T12:08:25.043Z,19.10
2023-01-28T12:11:10.899Z,19.98
2023-01-28T12:13:53.933Z,18.65
2023-01-28T12:16:41.006Z,18.55
2023-01-28T12:19:22.919Z,16.55
2023-01-28T12:22:08.606Z,19.08
2023-01-28T12:24:53.635Z,17.20
2023-01-28T12:27:35.985Z,17.13
2023-01-28T12:30:19.482Z,20.23
2023-01-28T12:33:00.993Z,19.10
2023-01-28T12:35:36.668Z,20.10
2023-01-28T12:38:15.704Z,20.30
2023-01-28T12:43:25.416Z,18.88
2023-01-28T12:45:58.762Z,17.92
2023-01-28T12:48:35.480Z,20.00
2023-01-28T12:51:09.265Z,18.95
2023-01-28T12:53:44.164Z,19.48
2023-01-28T12:56:16.851Z,17.13
2023-01-28T12:58:54.032Z,21.35
2023-01-28T13:01:31.926Z,17.15
2023-01-28T13:04:07.702Z,17.90
2023-01-28T13:06:45.440Z,16.55
2023-01-28T13:09:19.945Z,18.50
2023-01-28T13:11:51.373Z,17.63
2023-01-28T13:14:31.734Z,16.10
2023-01-28T13:17:10.605Z,18.92
2023-01-28T13:19:41.029Z,22.60
2023-01-28T13:22:25.700Z,17.15
2023-01-28T13:24:55.966Z,17.63
2023-01-28T13:27:27.377Z,17.95
2023-01-28T13:30:05.238Z,20.02
2023-01-28T13:32:36.676Z,22.02
2023-01-28T13:35:08.863Z,23.98
2023-01-28T13:37:40.568Z,27.38
2023-01-28T13:40:25.373Z,18.75
2023-01-28T13:43:03.624Z,19.60
2023-01-28T13:45:38.166Z,24.98
2023-01-28T13:48:23.839Z,18.83
2023-01-28T13:50:54.137Z,16.63
2023-01-28T13:53:34.292Z,20.52
2023-01-28T13:56:09.007Z,19.75
2023-01-28T13:59:05.171Z,14.70
2023-01-28T14:02:00.753Z,15.00
2023-01-28T14:04:57.073Z,16.23
2023-01-28T14:07:56.330Z,15.15
2023-01-28T14:10:38.954Z,16.73
2023-01-28T14:13:29.035Z,15.88
2023-01-28T14:16:13.651Z,15.95
2023-01-28T14:18:45.255Z,13.23
2023-01-28T14:21:16.394Z,15.75
2023-01-28T14:23:52.757Z,14.38
2023-01-28T14:26:43.594Z,14.45
2023-01-28T14:29:25.682Z,16.88
2023-01-28T14:31:56.088Z,15.13
2023-01-28T14:34:29.065Z,14.60
2023-01-28T14:37:02.667Z,14.02
2023-01-28T14:39:35.857Z,14.95
2023-01-28T14:42:05.166Z,18.25
2023-01-28T14:44:37.714Z,17.85
2023-01-28T14:47:37.583Z,14.90
2023-01-28T14:50:23.736Z,17.73
2023-01-28T14:53:19.113Z,18.45
2023-01-28T14:55:54.187Z,17.65
2023-01-28T14:58:26.602Z,22.65
2023-01-28T15:00:59.228Z,18.70
2023-01-28T15:03:41.341Z,19.05
2023-01-28T15:06:15.284Z,22.55
2023-01-28T15:08:44.057Z,19.13
2023-01-28T15:11:16.275Z,21.33
2023-01-28T15:13:47.209Z,19.95
2023-01-28T15:16:21.399Z,22.13
2023-01-28T15:18:52.895Z,20.52
2023-01-28T15:21:22.939Z,23.15
2023-01-28T15:23:54.515Z,20.42
2023-01-28T15:26:26.649Z,24.95
2023-01-28T15:28:56.976Z,25.60
2023-01-28T15:31:30.371Z,20.40
2023-01-28T15:34:00.356Z,26.30
2023-01-28T15:36:30.231Z,22.20
2023-01-28T15:38:59.634Z,26.02
2023-01-28T15:41:33.337Z,26.23
2023-01-28T15:44:02.531Z,25.33
2023-01-28T15:46:32.491Z,24.90
2023-01-28T15:49:03.472Z,23.45
2023-01-28T15:51:33.903Z,23.08
2023-01-28T15:54:06.532Z,24.20
2023-01-28T15:56:35.913Z,23.83
2023-01-28T15:59:19.010Z,23.00
2023-01-28T16:01:49.072Z,20.88
2023-01-28T16:04:26.077Z,23.52
2023-01-28T16:06:56.820Z,31.13
2023-01-28T16:09:29.087Z,25.98
2023-01-28T16:12:03.136Z,27.35
2023-01-28T16:14:37.188Z,26.38
2023-01-28T16:17:07.459Z,28.65
2023-01-28T16:19:39.782Z,23.30
2023-01-28T16:22:19.238Z,28.73
2023-01-28T16:24:53.263Z,25.13
2023-01-28T16:27:23.663Z,27.00
2023-01-28T16:29:52.303Z,30.33
2023-01-28T16:32:35.528Z,26.38
2023-01-28T16:35:05.774Z,28.02
2023-01-28T16:37:34.388Z,29.52
2023-01-28T16:40:02.836Z,29.92
2023-01-28T16:42:32.493Z,28.27
2023-01-28T16:45:00.874Z,27.73
2023-01-28T16:47:31.171Z,35.53
2023-01-28T16:49:59.890Z,29.40
2023-01-28T16:52:28.845Z,27.08
2023-01-28T16:54:57.199Z,30.85
2023-01-28T16:57:25.903Z,33.13
2023-01-28T16:59:54.858Z,33.10
2023-01-28T17:02:23.741Z,31.10
2023-01-28T17:04:53.946Z,36.35
2023-01-28T17:07:22.488Z,30.48
2023-01-28T17:09:51.142Z,29.55
2023-01-28T17:12:20.076Z,31.55
2023-01-28T17:14:48.868Z,30.05
2023-01-28T17:17:17.572Z,40.35
2023-01-28T17:19:46.407Z,33.47
2023-01-28T17:22:16.487Z,37.38
2023-01-28T17:24:46.368Z,35.67
2023-01-28T17:27:14.946Z,33.92
2023-01-28T17:29:43.295Z,31.73
2023-01-28T17:32:11.905Z,38.67
2023-01-28T17:34:40.537Z,38.22
2023-01-28T17:37:09.125Z,41.58
2023-01-28T17:39:39.026Z,47.70
2023-01-28T17:42:07.581Z,38.65
2023-01-28T17:44:35.970Z,38.25
2023-01-28T17:47:04.422Z,35.42
2023-01-28T17:49:33.108Z,42.72
2023-01-28T17:52:01.567Z,35.67
2023-01-28T17:54:30.068Z,37.72
2023-01-28T17:56:59.932Z,38.58
2023-01-28T17:59:28.652Z,35.03
2023-01-28T18:01:57.775Z,35.95
2023-01-28T18:04:26.419Z,41.13
2023-01-28T18:06:54.937Z,41.50
2023-01-28T18:09:23.625Z,43.60
2023-01-28T18:11:52.677Z,40.63
2023-01-28T18:14:22.637Z,40.97
2023-01-28T18:16:51.534Z,42.47
2023-01-28T18:19:19.961Z,39.28
2023-01-28T18:21:52.968Z,42.55
2023-01-28T18:24:23.383Z,45.35
2023-01-28T18:26:52.194Z,39.00
2023-01-28T18:29:24.043Z,46.60
2023-01-28T18:31:55.190Z,42.53
2023-01-28T18:34:25.076Z,38.47
2023-01-28T18:36:54.019Z,39.15
2023-01-28T18:39:23.218Z,44.00
2023-01-28T18:41:53.833Z,43.58
2023-01-28T18:44:25.303Z,42.45
2023-01-28T18:46:54.482Z,42.60
2023-01-28T18:49:23.067Z,42.83
2023-01-28T18:51:51.818Z,38.28
2023-01-28T18:54:20.955Z,44.33
2023-01-28T18:56:49.624Z,44.65
2023-01-28T18:59:18.834Z,48.22
2023-01-28T19:01:49.081Z,45.03
2023-01-28T19:04:20.576Z,49.75
2023-01-28T19:06:52.508Z,43.92
2023-01-28T19:09:21.680Z,50.63
2023-01-28T19:11:50.953Z,46.75
2023-01-28T19:14:19.449Z,45.80
2023-01-28T19:16:49.226Z,50.35
2023-01-28T19:19:18.374Z,47.08
2023-01-28T19:21:46.742Z,49.92
2023-01-28T19:24:15.236Z,42.65
2023-01-28T19:26:44.929Z,44.95
2023-01-28T19:29:15.893Z,50.95
2023-01-28T19:31:48.845Z,52.17
2023-01-28T19:34:21.205Z,50.17
2023-01-28T19:36:49.917Z,51.00
2023-01-28T19:39:18.438Z,50.28
2023-01-28T19:41:47.109Z,55.20
2023-01-28T19:44:15.674Z,51.10
2023-01-28T19:46:44.332Z,61.97
2023-01-28T19:49:13.042Z,57.08
2023-01-28T19:51:42.816Z,52.38
2023-01-28T19:54:11.298Z,58.80
2023-01-28T19:56:39.845Z,55.78
2023-01-28T19:59:08.418Z,55.72
2023-01-28T20:01:37.553Z,59.67
2023-01-28T20:04:06.110Z,57.47
2023-01-28T20:06:36.212Z,54.78
2023-01-28T20:09:10.037Z,54.55
2023-01-28T20:11:38.535Z,57.83
2023-01-28T20:14:07.459Z,58.78
2023-01-28T20:16:36.763Z,69.15
2023-01-28T20:19:07.317Z,59.95
2023-01-28T20:21:40.993Z,62.42
2023-01-28T20:24:12.911Z,63.85
2023-01-28T20:26:43.289Z,62.67
2023-01-28T20:29:14.239Z,64.80
2023-01-28T20:31:43.299Z,63.42
2023-01-28T20:34:15.860Z,67.63
2023-01-28T20:36:44.521Z,64.03
2023-01-28T20:39:15.034Z,63.17
2023-01-28T20:41:43.489Z,63.35
2023-01-28T20:44:12.244Z,64.53
2023-01-28T20:46:41.261Z,60.88
2023-01-28T20:49:10.571Z,65.88
2023-01-28T20:51:39.403Z,73.25
2023-01-28T20:54:08.220Z,77.25
2023-01-28T20:56:38.062Z,71.68
2023-01-28T20:59:07.540Z,71.30
2023-01-28T21:01:37.977Z,64.88
2023-01-28T21:04:13.526Z,67.90
2023-01-28T21:06:42.867Z,68.32
2023-01-28T21:09:11.855Z,65.45
2023-01-28T21:11:41.938Z,67.53
2023-01-28T21:14:12.993Z,73.50
2023-01-28T21:16:42.430Z,70.40
2023-01-28T21:19:12.312Z,68.25
2023-01-28T21:21:42.983Z,65.63
2023-01-28T21:24:12.967Z,70.30
2023-01-28T21:26:43.888Z,62.60
2023-01-28T21:29:14.632Z,65.60
2023-01-28T21:31:49.395Z,64.38
2023-01-28T21:34:18.699Z,71.20
2023-01-28T21:36:47.370Z,68.22
2023-01-28T21:39:16.119Z,69.80
2023-01-28T21:41:46.461Z,70.35
2023-01-28T21:44:15.110Z,70.07
2023-01-28T21:46:43.895Z,73.60
2023-01-28T21:49:12.806Z,72.97
2023-01-28T21:51:46.358Z,71.57
2023-01-28T21:54:16.714Z,71.30
2023-01-28T21:56:50.719Z,67.13
2023-01-28T21:59:30.764Z,76.18
2023-01-28T22:02:01.732Z,67.55
2023-01-28T22:04:32.778Z,73.07
2023-01-28T22:07:09.347Z,70.38
2023-01-28T22:09:39.829Z,63.15
2023-01-28T22:12:18.352Z,72.55
2023-01-28T22:14:51.486Z,69.50
2023-01-28T22:17:21.260Z,74.82
2023-01-28T22:19:51.997Z,72.32
2023-01-28T22:22:21.476Z,67.03
2023-01-28T22:24:51.693Z,75.13
2023-01-28T22:27:23.202Z,75.18
2023-01-28T22:29:54.247Z,68.43
2023-01-28T22:32:33.840Z,76.35
2023-01-28T22:35:05.242Z,67.60
2023-01-28T22:37:36.345Z,74.18
2023-01-28T22:40:05.341Z,73.05
2023-01-28T22:42:35.470Z,77.93
2023-01-28T22:45:04.324Z,71.13
2023-01-28T22:47:32.830Z,77.60
2023-01-28T22:50:01.434Z,70.55
2023-01-28T22:52:29.906Z,73.00
2023-01-28T22:54:58.383Z,72.07
2023-01-28T22:57:27.023Z,73.30
2023-01-28T23:00:00.474Z,75.53
2023-01-28T23:02:29.757Z,69.55
2023-01-28T23:04:58.446Z,80.68
2023-01-28T23:07:27.141Z,85.38
2023-01-28T23:09:55.576Z,82.35
2023-01-28T23:12:24.117Z,84.20
2023-01-28T23:15:10.244Z,98.15
2023-01-28T23:17:57.590Z,82.95
2023-01-28T23:20:43.727Z,87.25
2023-01-28T23:23:34.187Z,76.45
2023-01-28T23:26:04.656Z,79.75
2023-01-28T23:28:34.106Z,77.70
2023-01-28T23:31:02.758Z,76.90
2023-01-28T23:33:32.961Z,80.50
2023-01-28T23:36:01.812Z,82.03
2023-01-28T23:38:30.343Z,83.40
2023-01-28T23:40:58.812Z,72.88
2023-01-28T23:43:27.377Z,73.22
2023-01-28T23:45:55.866Z,73.95
2023-01-28T23:48:25.605Z,82.78
2023-01-28T23:50:56.982Z,72.72
2023-01-28T23:53:25.629Z,78.70
2023-01-28T23:55:54.234Z,77.07
2023-01-28T23:58:41.150Z,76.28
